sensor_id;sensor_type;location;lat;lon;timestamp;P1;durP1;ratioP1;P2;durP2;ratioP2
15848;SDS011;8024;48.708;9.394;2022-10-31T00:00:16;8.27;;;5.17;;
15848;SDS011;8024;48.708;9.394;2022-10-31T00:02:44;7.13;;;5.60;;
15848;SDS011;8024;48.708;9.394;2022-10-31T00:05:11;6.93;;;6.20;;
15848;SDS011;8024;48.708;9.394;2022-10-31T00:07:39;9.67;;;5.83;;
15848;SDS011;8024;48.708;9.394;2022-10-31T00:10:08;10.13;;;5.30;;
15848;SDS011;8024;48.708;9.394;2022-10-31T00:12:36;7.00;;;5.43;;
15848;SDS011;8024;48.708;9.394;2022-10-31T00:15:04;7.30;;;5.67;;
15848;SDS011;8024;48.708;9.394;2022-10-31T00:17:34;7.73;;;5.83;;
15848;SDS011;8024;48.708;9.394;2022-10-31T00:20:02;6.70;;;5.10;;
15848;SDS011;8024;48.708;9.394;2022-10-31T00:22:29;6.10;;;5.37;;
15848;SDS011;8024;48.708;9.394;2022-10-31T00:24:56;9.30;;;5.27;;
15848;SDS011;8024;48.708;9.394;2022-10-31T00:27:25;8.07;;;5.33;;
15848;SDS011;8024;48.708;9.394;2022-10-31T00:29:52;8.23;;;5.87;;
15848;SDS011;8024;48.708;9.394;2022-10-31T00:32:19;8.60;;;5.20;;
15848;SDS011;8024;48.708;9.394;2022-10-31T00:34:46;5.63;;;5.03;;
15848;SDS011;8024;48.708;9.394;2022-10-31T00:37:13;6.13;;;5.07;;
15848;SDS011;8024;48.708;9.394;2022-10-31T00:39:40;10.37;;;4.90;;
15848;SDS011;8024;48.708;9.394;2022-10-31T00:42:10;9.33;;;5.07;;
15848;SDS011;8024;48.708;9.394;2022-10-31T00:44:38;6.60;;;4.93;;
15848;SDS011;8024;48.708;9.394;2022-10-31T00:47:05;7.10;;;4.23;;
15848;SDS011;8024;48.708;9.394;2022-10-31T00:49:33;5.90;;;4.37;;
15848;SDS011;8024;48.708;9.394;2022-10-31T00:52:00;6.67;;;4.60;;
15848;SDS011;8024;48.708;9.394;2022-10-31T00:54:27;6.67;;;4.60;;
15848;SDS011;8024;48.708;9.394;2022-10-31T00:56:55;7.90;;;4.27;;
15848;SDS011;8024;48.708;9.394;2022-10-31T00:59:23;7.67;;;3.97;;
15848;SDS011;8024;48.708;9.394;2022-10-31T01:01:51;7.93;;;4.10;;
15848;SDS011;8024;48.708;9.394;2022-10-31T01:04:18;7.53;;;4.30;;
15848;SDS011;8024;48.708;9.394;2022-10-31T01:06:45;6.20;;;4.03;;
15848;SDS011;8024;48.708;9.394;2022-10-31T01:09:13;8.17;;;4.30;;
15848;SDS011;8024;48.708;9.394;2022-10-31T01:11:40;7.50;;;4.73;;
15848;SDS011;8024;48.708;9.394;2022-10-31T01:14:08;6.93;;;3.70;;
15848;SDS011;8024;48.708;9.394;2022-10-31T01:16:35;5.67;;;3.63;;
15848;SDS011;8024;48.708;9.394;2022-10-31T01:19:04;6.40;;;4.17;;
15848;SDS011;8024;48.708;9.394;2022-10-31T01:21:31;5.67;;;4.30;;
15848;SDS011;8024;48.708;9.394;2022-10-31T01:23:58;5.20;;;4.00;;
15848;SDS011;8024;48.708;9.394;2022-10-31T01:26:27;7.50;;;3.67;;
15848;SDS011;8024;48.708;9.394;2022-10-31T01:28:57;8.27;;;4.30;;
15848;SDS011;8024;48.708;9.394;2022-10-31T01:31:26;7.63;;;4.73;;
15848;SDS011;8024;48.708;9.394;2022-10-31T01:33:54;6.97;;;3.40;;
15848;SDS011;8024;48.708;9.394;2022-10-31T01:36:24;5.90;;;4.47;;
15848;SDS011;8024;48.708;9.394;2022-10-31T01:38:53;9.13;;;3.90;;
15848;SDS011;8024;48.708;9.394;2022-10-31T01:41:23;7.57;;;4.13;;
15848;SDS011;8024;48.708;9.394;2022-10-31T01:43:52;8.77;;;4.43;;
15848;SDS011;8024;48.708;9.394;2022-10-31T01:46:22;5.10;;;3.70;;
15848;SDS011;8024;48.708;9.394;2022-10-31T01:48:53;5.33;;;3.67;;
15848;SDS011;8024;48.708;9.394;2022-10-31T01:51:25;6.30;;;4.20;;
15848;SDS011;8024;48.708;9.394;2022-10-31T01:53:56;4.23;;;3.83;;
15848;SDS011;8024;48.708;9.394;2022-10-31T01:56:27;7.23;;;4.10;;
15848;SDS011;8024;48.708;9.394;2022-10-31T01:58:54;6.67;;;4.40;;
15848;SDS011;8024;48.708;9.394;2022-10-31T02:01:23;7.57;;;3.63;;
15848;SDS011;8024;48.708;9.394;2022-10-31T02:03:50;9.03;;;4.43;;
15848;SDS011;8024;48.708;9.394;2022-10-31T02:06:20;7.30;;;4.13;;
15848;SDS011;8024;48.708;9.394;2022-10-31T02:09:00;6.60;;;3.87;;
15848;SDS011;8024;48.708;9.394;2022-10-31T02:11:28;4.63;;;3.57;;
15848;SDS011;8024;48.708;9.394;2022-10-31T02:13:57;5.63;;;3.90;;
15848;SDS011;8024;48.708;9.394;2022-10-31T02:16:26;8.87;;;4.10;;
15848;SDS011;8024;48.708;9.394;2022-10-31T02:18:53;7.83;;;3.70;;
15848;SDS011;8024;48.708;9.394;2022-10-31T02:21:22;6.90;;;3.83;;
15848;SDS011;8024;48.708;9.394;2022-10-31T02:27:11;8.17;;;3.80;;
15848;SDS011;8024;48.708;9.394;2022-10-31T02:32:44;7.00;;;4.13;;
15848;SDS011;8024;48.708;9.394;2022-10-31T02:35:34;4.97;;;3.73;;
15848;SDS011;8024;48.708;9.394;2022-10-31T02:38:10;6.20;;;3.87;;
15848;SDS011;8024;48.708;9.394;2022-10-31T02:40:47;7.27;;;3.80;;
15848;SDS011;8024;48.708;9.394;2022-10-31T02:43:19;8.30;;;4.53;;
15848;SDS011;8024;48.708;9.394;2022-10-31T02:45:50;5.60;;;3.43;;
15848;SDS011;8024;48.708;9.394;2022-10-31T02:48:26;5.43;;;3.60;;
15848;SDS011;8024;48.708;9.394;2022-10-31T02:50:55;5.93;;;3.30;;
15848;SDS011;8024;48.708;9.394;2022-10-31T02:53:25;6.20;;;3.87;;
15848;SDS011;8024;48.708;9.394;2022-10-31T02:55:56;7.17;;;3.60;;
15848;SDS011;8024;48.708;9.394;2022-10-31T02:58:26;7.10;;;3.53;;
15848;SDS011;8024;48.708;9.394;2022-10-31T03:01:06;5.23;;;4.00;;
15848;SDS011;8024;48.708;9.394;2022-10-31T03:03:43;5.80;;;3.67;;
15848;SDS011;8024;48.708;9.394;2022-10-31T03:06:20;4.10;;;3.40;;
15848;SDS011;8024;48.708;9.394;2022-10-31T03:08:54;5.50;;;3.63;;
15848;SDS011;8024;48.708;9.394;2022-10-31T03:11:28;5.77;;;4.07;;
15848;SDS011;8024;48.708;9.394;2022-10-31T03:13:59;5.67;;;3.53;;
15848;SDS011;8024;48.708;9.394;2022-10-31T03:16:34;4.83;;;3.60;;
15848;SDS011;8024;48.708;9.394;2022-10-31T03:19:08;6.37;;;3.37;;
15848;SDS011;8024;48.708;9.394;2022-10-31T03:21:39;5.43;;;3.63;;
15848;SDS011;8024;48.708;9.394;2022-10-31T03:24:10;3.53;;;3.00;;
15848;SDS011;8024;48.708;9.394;2022-10-31T03:26:40;6.53;;;3.73;;
15848;SDS011;8024;48.708;9.394;2022-10-31T03:29:11;4.40;;;3.37;;
15848;SDS011;8024;48.708;9.394;2022-10-31T03:31:42;6.23;;;3.90;;
15848;SDS011;8024;48.708;9.394;2022-10-31T03:34:15;7.77;;;3.73;;
15848;SDS011;8024;48.708;9.394;2022-10-31T03:36:44;8.47;;;4.13;;
15848;SDS011;8024;48.708;9.394;2022-10-31T03:39:15;6.00;;;3.53;;
15848;SDS011;8024;48.708;9.394;2022-10-31T03:41:45;6.33;;;3.27;;
15848;SDS011;8024;48.708;9.394;2022-10-31T03:44:16;8.80;;;3.90;;
15848;SDS011;8024;48.708;9.394;2022-10-31T03:46:45;4.97;;;3.90;;
15848;SDS011;8024;48.708;9.394;2022-10-31T03:49:12;7.07;;;3.97;;
15848;SDS011;8024;48.708;9.394;2022-10-31T03:51:42;6.27;;;4.17;;
15848;SDS011;8024;48.708;9.394;2022-10-31T03:54:15;7.03;;;3.83;;
15848;SDS011;8024;48.708;9.394;2022-10-31T03:56:49;4.60;;;3.53;;
15848;SDS011;8024;48.708;9.394;2022-10-31T03:59:20;6.23;;;3.73;;
15848;SDS011;8024;48.708;9.394;2022-10-31T04:01:51;6.53;;;3.70;;
15848;SDS011;8024;48.708;9.394;2022-10-31T04:04:21;5.20;;;3.90;;
15848;SDS011;8024;48.708;9.394;2022-10-31T04:06:49;5.73;;;3.57;;
15848;SDS011;8024;48.708;9.394;2022-10-31T04:09:18;4.17;;;3.20;;
15848;SDS011;8024;48.708;9.394;2022-10-31T04:11:48;4.23;;;3.63;;
15848;SDS011;8024;48.708;9.394;2022-10-31T04:14:17;4.57;;;3.40;;
15848;SDS011;8024;48.708;9.394;2022-10-31T04:16:44;5.80;;;3.40;;
15848;SDS011;8024;48.708;9.394;2022-10-31T04:19:11;6.23;;;3.90;;
15848;SDS011;8024;48.708;9.394;2022-10-31T04:21:40;7.53;;;4.00;;
15848;SDS011;8024;48.708;9.394;2022-10-31T04:24:08;9.20;;;4.27;;
15848;SDS011;8024;48.708;9.394;2022-10-31T04:26:35;9.03;;;4.67;;
15848;SDS011;8024;48.708;9.394;2022-10-31T04:29:02;6.57;;;3.63;;
15848;SDS011;8024;48.708;9.394;2022-10-31T04:31:30;4.43;;;3.80;;
15848;SDS011;8024;48.708;9.394;2022-10-31T04:33:57;5.23;;;4.13;;
15848;SDS011;8024;48.708;9.394;2022-10-31T04:36:24;7.60;;;3.30;;
15848;SDS011;8024;48.708;9.394;2022-10-31T04:38:52;6.37;;;3.83;;
15848;SDS011;8024;48.708;9.394;2022-10-31T04:41:19;9.33;;;3.80;;
15848;SDS011;8024;48.708;9.394;2022-10-31T04:43:47;6.60;;;4.57;;
15848;SDS011;8024;48.708;9.394;2022-10-31T04:46:14;6.40;;;4.70;;
15848;SDS011;8024;48.708;9.394;2022-10-31T04:48:41;6.30;;;4.40;;
15848;SDS011;8024;48.708;9.394;2022-10-31T04:51:08;7.20;;;3.87;;
15848;SDS011;8024;48.708;9.394;2022-10-31T04:53:35;6.73;;;4.30;;
15848;SDS011;8024;48.708;9.394;2022-10-31T04:56:04;6.57;;;4.60;;
15848;SDS011;8024;48.708;9.394;2022-10-31T04:58:32;8.03;;;5.20;;
15848;SDS011;8024;48.708;9.394;2022-10-31T05:00:59;6.67;;;4.77;;
15848;SDS011;8024;48.708;9.394;2022-10-31T05:03:26;9.20;;;5.13;;
15848;SDS011;8024;48.708;9.394;2022-10-31T05:05:53;4.73;;;4.30;;
15848;SDS011;8024;48.708;9.394;2022-10-31T05:08:20;5.90;;;4.40;;
15848;SDS011;8024;48.708;9.394;2022-10-31T05:10:47;5.87;;;4.20;;
15848;SDS011;8024;48.708;9.394;2022-10-31T05:13:16;5.47;;;3.57;;
15848;SDS011;8024;48.708;9.394;2022-10-31T05:15:43;6.20;;;4.23;;
15848;SDS011;8024;48.708;9.394;2022-10-31T05:18:10;4.97;;;3.93;;
15848;SDS011;8024;48.708;9.394;2022-10-31T05:20:37;6.97;;;4.00;;
15848;SDS011;8024;48.708;9.394;2022-10-31T05:23:04;5.67;;;4.37;;
15848;SDS011;8024;48.708;9.394;2022-10-31T05:25:31;4.87;;;3.83;;
15848;SDS011;8024;48.708;9.394;2022-10-31T05:27:59;5.37;;;3.50;;
15848;SDS011;8024;48.708;9.394;2022-10-31T05:30:28;6.77;;;4.87;;
15848;SDS011;8024;48.708;9.394;2022-10-31T05:32:56;5.63;;;3.40;;
15848;SDS011;8024;48.708;9.394;2022-10-31T05:35:25;6.43;;;2.90;;
15848;SDS011;8024;48.708;9.394;2022-10-31T05:37:53;4.83;;;3.70;;
15848;SDS011;8024;48.708;9.394;2022-10-31T05:40:22;5.37;;;3.83;;
15848;SDS011;8024;48.708;9.394;2022-10-31T05:42:50;4.63;;;4.10;;
15848;SDS011;8024;48.708;9.394;2022-10-31T05:45:19;5.57;;;3.77;;
15848;SDS011;8024;48.708;9.394;2022-10-31T05:47:52;5.53;;;3.60;;
15848;SDS011;8024;48.708;9.394;2022-10-31T05:50:21;7.63;;;3.47;;
15848;SDS011;8024;48.708;9.394;2022-10-31T05:52:53;4.87;;;3.47;;
15848;SDS011;8024;48.708;9.394;2022-10-31T05:55:21;5.13;;;3.77;;
15848;SDS011;8024;48.708;9.394;2022-10-31T05:57:50;3.93;;;3.43;;
15848;SDS011;8024;48.708;9.394;2022-10-31T06:00:18;5.67;;;3.17;;
15848;SDS011;8024;48.708;9.394;2022-10-31T06:02:46;5.33;;;3.57;;
15848;SDS011;8024;48.708;9.394;2022-10-31T06:05:14;4.03;;;3.30;;
15848;SDS011;8024;48.708;9.394;2022-10-31T06:07:42;4.67;;;3.60;;
15848;SDS011;8024;48.708;9.394;2022-10-31T06:10:09;7.23;;;3.37;;
15848;SDS011;8024;48.708;9.394;2022-10-31T06:12:36;5.23;;;4.30;;
15848;SDS011;8024;48.708;9.394;2022-10-31T06:15:06;4.60;;;3.20;;
15848;SDS011;8024;48.708;9.394;2022-10-31T06:17:34;5.20;;;3.50;;
15848;SDS011;8024;48.708;9.394;2022-10-31T06:20:02;4.03;;;3.47;;
15848;SDS011;8024;48.708;9.394;2022-10-31T06:22:31;7.57;;;4.00;;
15848;SDS011;8024;48.708;9.394;2022-10-31T06:24:59;3.47;;;3.00;;
15848;SDS011;8024;48.708;9.394;2022-10-31T06:27:26;4.80;;;3.70;;
15848;SDS011;8024;48.708;9.394;2022-10-31T06:29:54;6.83;;;3.77;;
15848;SDS011;8024;48.708;9.394;2022-10-31T06:32:21;4.90;;;3.93;;
15848;SDS011;8024;48.708;9.394;2022-10-31T06:34:48;5.03;;;3.87;;
15848;SDS011;8024;48.708;9.394;2022-10-31T06:37:15;6.60;;;3.80;;
15848;SDS011;8024;48.708;9.394;2022-10-31T06:39:44;6.10;;;3.73;;
15848;SDS011;8024;48.708;9.394;2022-10-31T06:42:11;8.50;;;3.97;;
15848;SDS011;8024;48.708;9.394;2022-10-31T06:44:38;5.77;;;4.00;;
15848;SDS011;8024;48.708;9.394;2022-10-31T06:47:05;5.80;;;4.00;;
15848;SDS011;8024;48.708;9.394;2022-10-31T06:49:32;5.67;;;4.10;;
15848;SDS011;8024;48.708;9.394;2022-10-31T06:51:59;5.23;;;3.83;;
15848;SDS011;8024;48.708;9.394;2022-10-31T06:54:27;4.47;;;3.40;;
15848;SDS011;8024;48.708;9.394;2022-10-31T06:56:55;7.10;;;3.63;;
15848;SDS011;8024;48.708;9.394;2022-10-31T06:59:22;5.83;;;4.03;;
15848;SDS011;8024;48.708;9.394;2022-10-31T07:01:50;5.43;;;3.57;;
15848;SDS011;8024;48.708;9.394;2022-10-31T07:04:17;5.10;;;3.70;;
15848;SDS011;8024;48.708;9.394;2022-10-31T07:06:44;5.77;;;3.83;;
15848;SDS011;8024;48.708;9.394;2022-10-31T07:09:11;5.63;;;4.00;;
15848;SDS011;8024;48.708;9.394;2022-10-31T07:11:38;4.17;;;3.70;;
15848;SDS011;8024;48.708;9.394;2022-10-31T07:14:07;4.47;;;4.07;;
15848;SDS011;8024;48.708;9.394;2022-10-31T07:16:34;4.07;;;3.40;;
15848;SDS011;8024;48.708;9.394;2022-10-31T07:19:04;5.80;;;3.43;;
15848;SDS011;8024;48.708;9.394;2022-10-31T07:21:31;3.90;;;3.30;;
15848;SDS011;8024;48.708;9.394;2022-10-31T07:23:58;4.20;;;2.90;;
15848;SDS011;8024;48.708;9.394;2022-10-31T07:26:25;3.20;;;2.80;;
15848;SDS011;8024;48.708;9.394;2022-10-31T07:28:52;4.50;;;3.10;;
15848;SDS011;8024;48.708;9.394;2022-10-31T07:31:21;3.60;;;3.30;;
15848;SDS011;8024;48.708;9.394;2022-10-31T07:33:49;5.03;;;4.33;;
15848;SDS011;8024;48.708;9.394;2022-10-31T07:36:16;6.13;;;5.07;;
15848;SDS011;8024;48.708;9.394;2022-10-31T07:38:44;6.00;;;4.30;;
15848;SDS011;8024;48.708;9.394;2022-10-31T07:41:11;8.27;;;4.87;;
15848;SDS011;8024;48.708;9.394;2022-10-31T07:43:38;5.27;;;4.60;;
15848;SDS011;8024;48.708;9.394;2022-10-31T07:46:06;5.67;;;4.50;;
15848;SDS011;8024;48.708;9.394;2022-10-31T07:48:35;6.00;;;4.40;;
15848;SDS011;8024;48.708;9.394;2022-10-31T07:51:02;5.33;;;4.53;;
15848;SDS011;8024;48.708;9.394;2022-10-31T07:53:30;5.30;;;4.47;;
15848;SDS011;8024;48.708;9.394;2022-10-31T07:55:57;4.33;;;3.90;;
15848;SDS011;8024;48.708;9.394;2022-10-31T07:58:24;5.80;;;4.70;;
15848;SDS011;8024;48.708;9.394;2022-10-31T08:00:51;5.33;;;4.30;;
15848;SDS011;8024;48.708;9.394;2022-10-31T08:03:18;5.87;;;4.57;;
15848;SDS011;8024;48.708;9.394;2022-10-31T08:05:47;5.93;;;4.80;;
15848;SDS011;8024;48.708;9.394;2022-10-31T08:08:14;5.53;;;4.30;;
15848;SDS011;8024;48.708;9.394;2022-10-31T08:10:42;6.27;;;4.30;;
15848;SDS011;8024;48.708;9.394;2022-10-31T08:13:10;4.83;;;4.33;;
15848;SDS011;8024;48.708;9.394;2022-10-31T08:15:38;5.70;;;4.13;;
15848;SDS011;8024;48.708;9.394;2022-10-31T08:18:07;5.57;;;3.97;;
15848;SDS011;8024;48.708;9.394;2022-10-31T08:20:38;4.60;;;4.20;;
15848;SDS011;8024;48.708;9.394;2022-10-31T08:23:06;7.63;;;4.83;;
15848;SDS011;8024;48.708;9.394;2022-10-31T08:25:35;4.97;;;4.50;;
15848;SDS011;8024;48.708;9.394;2022-10-31T08:28:03;7.20;;;4.93;;
15848;SDS011;8024;48.708;9.394;2022-10-31T08:30:31;5.73;;;4.47;;
15848;SDS011;8024;48.708;9.394;2022-10-31T08:33:00;6.67;;;4.70;;
15848;SDS011;8024;48.708;9.394;2022-10-31T08:35:28;11.47;;;7.30;;
15848;SDS011;8024;48.708;9.394;2022-10-31T08:37:55;10.33;;;6.43;;
15848;SDS011;8024;48.708;9.394;2022-10-31T08:40:25;10.27;;;5.97;;
15848;SDS011;8024;48.708;9.394;2022-10-31T08:42:57;8.90;;;5.20;;
15848;SDS011;8024;48.708;9.394;2022-10-31T08:45:25;6.70;;;4.43;;
15848;SDS011;8024;48.708;9.394;2022-10-31T08:47:56;8.23;;;4.50;;
15848;SDS011;8024;48.708;9.394;2022-10-31T08:50:24;6.23;;;4.57;;
15848;SDS011;8024;48.708;9.394;2022-10-31T08:52:52;7.47;;;4.80;;
15848;SDS011;8024;48.708;9.394;2022-10-31T08:55:19;6.13;;;4.17;;
15848;SDS011;8024;48.708;9.394;2022-10-31T08:57:48;7.57;;;5.57;;
15848;SDS011;8024;48.708;9.394;2022-10-31T09:00:20;8.00;;;4.57;;
15848;SDS011;8024;48.708;9.394;2022-10-31T09:02:47;8.57;;;6.33;;
15848;SDS011;8024;48.708;9.394;2022-10-31T09:05:20;5.37;;;4.17;;
15848;SDS011;8024;48.708;9.394;2022-10-31T09:07:47;7.60;;;5.13;;
15848;SDS011;8024;48.708;9.394;2022-10-31T09:10:15;5.53;;;4.87;;
15848;SDS011;8024;48.708;9.394;2022-10-31T09:12:42;14.97;;;5.67;;
15848;SDS011;8024;48.708;9.394;2022-10-31T09:15:10;8.87;;;5.03;;
15848;SDS011;8024;48.708;9.394;2022-10-31T09:17:38;6.30;;;4.70;;
15848;SDS011;8024;48.708;9.394;2022-10-31T09:20:05;5.17;;;4.57;;
15848;SDS011;8024;48.708;9.394;2022-10-31T09:22:33;7.30;;;4.67;;
15848;SDS011;8024;48.708;9.394;2022-10-31T09:25:00;7.90;;;4.97;;
15848;SDS011;8024;48.708;9.394;2022-10-31T09:27:27;9.67;;;4.70;;
15848;SDS011;8024;48.708;9.394;2022-10-31T09:29:54;7.67;;;5.27;;
15848;SDS011;8024;48.708;9.394;2022-10-31T09:32:23;8.00;;;7.03;;
15848;SDS011;8024;48.708;9.394;2022-10-31T09:34:50;8.87;;;6.30;;
15848;SDS011;8024;48.708;9.394;2022-10-31T09:37:18;10.53;;;6.40;;
15848;SDS011;8024;48.708;9.394;2022-10-31T09:39:45;5.80;;;4.90;;
15848;SDS011;8024;48.708;9.394;2022-10-31T09:42:25;8.37;;;4.47;;
15848;SDS011;8024;48.708;9.394;2022-10-31T09:45:07;6.87;;;4.63;;
15848;SDS011;8024;48.708;9.394;2022-10-31T09:47:44;7.60;;;4.73;;
15848;SDS011;8024;48.708;9.394;2022-10-31T09:50:19;5.47;;;4.63;;
15848;SDS011;8024;48.708;9.394;2022-10-31T09:52:53;8.53;;;4.50;;
15848;SDS011;8024;48.708;9.394;2022-10-31T09:55:26;5.43;;;4.77;;
15848;SDS011;8024;48.708;9.394;2022-10-31T09:57:57;9.47;;;4.50;;
15848;SDS011;8024;48.708;9.394;2022-10-31T10:00:25;6.83;;;4.57;;
15848;SDS011;8024;48.708;9.394;2022-10-31T10:02:56;6.00;;;4.17;;
15848;SDS011;8024;48.708;9.394;2022-10-31T10:05:28;8.13;;;4.77;;
15848;SDS011;8024;48.708;9.394;2022-10-31T10:08:00;5.60;;;4.23;;
15848;SDS011;8024;48.708;9.394;2022-10-31T10:10:36;6.87;;;4.53;;
15848;SDS011;8024;48.708;9.394;2022-10-31T10:13:18;5.43;;;4.03;;
15848;SDS011;8024;48.708;9.394;2022-10-31T10:19:00;5.50;;;3.80;;
15848;SDS011;8024;48.708;9.394;2022-10-31T10:21:39;6.50;;;4.63;;
15848;SDS011;8024;48.708;9.394;2022-10-31T10:24:21;9.87;;;4.60;;
15848;SDS011;8024;48.708;9.394;2022-10-31T10:26:59;5.57;;;4.83;;
15848;SDS011;8024;48.708;9.394;2022-10-31T10:29:37;7.10;;;4.00;;
15848;SDS011;8024;48.708;9.394;2022-10-31T10:32:10;6.33;;;4.33;;
15848;SDS011;8024;48.708;9.394;2022-10-31T10:34:45;8.63;;;4.87;;
15848;SDS011;8024;48.708;9.394;2022-10-31T10:37:19;7.27;;;4.63;;
15848;SDS011;8024;48.708;9.394;2022-10-31T10:39:52;8.53;;;4.50;;
15848;SDS011;8024;48.708;9.394;2022-10-31T10:42:23;4.27;;;3.87;;
15848;SDS011;8024;48.708;9.394;2022-10-31T10:45:13;9.00;;;4.63;;
15848;SDS011;8024;48.708;9.394;2022-10-31T10:48:03;4.63;;;3.80;;
15848;SDS011;8024;48.708;9.394;2022-10-31T10:50:36;6.67;;;3.83;;
15848;SDS011;8024;48.708;9.394;2022-10-31T10:53:09;6.60;;;4.10;;
15848;SDS011;8024;48.708;9.394;2022-10-31T10:55:48;7.30;;;4.20;;
15848;SDS011;8024;48.708;9.394;2022-10-31T10:58:22;6.10;;;4.03;;
15848;SDS011;8024;48.708;9.394;2022-10-31T11:00:49;4.80;;;3.97;;
15848;SDS011;8024;48.708;9.394;2022-10-31T11:03:18;8.03;;;4.97;;
15848;SDS011;8024;48.708;9.394;2022-10-31T11:05:48;7.73;;;4.60;;
15848;SDS011;8024;48.708;9.394;2022-10-31T11:08:23;6.20;;;4.80;;
15848;SDS011;8024;48.708;9.394;2022-10-31T11:10:58;7.37;;;4.30;;
15848;SDS011;8024;48.708;9.394;2022-10-31T11:13:27;8.60;;;4.70;;
15848;SDS011;8024;48.708;9.394;2022-10-31T11:15:57;8.80;;;4.70;;
15848;SDS011;8024;48.708;9.394;2022-10-31T11:18:27;6.90;;;3.57;;
15848;SDS011;8024;48.708;9.394;2022-10-31T11:20:58;6.73;;;4.07;;
15848;SDS011;8024;48.708;9.394;2022-10-31T11:23:28;6.37;;;4.10;;
15848;SDS011;8024;48.708;9.394;2022-10-31T11:25:56;6.57;;;3.90;;
15848;SDS011;8024;48.708;9.394;2022-10-31T11:28:24;6.50;;;3.83;;
15848;SDS011;8024;48.708;9.394;2022-10-31T11:30:54;7.77;;;4.43;;
15848;SDS011;8024;48.708;9.394;2022-10-31T11:33:25;6.27;;;4.03;;
15848;SDS011;8024;48.708;9.394;2022-10-31T11:35:55;7.23;;;3.93;;
15848;SDS011;8024;48.708;9.394;2022-10-31T11:38:26;9.03;;;3.90;;
15848;SDS011;8024;48.708;9.394;2022-10-31T11:41:00;6.10;;;4.30;;
15848;SDS011;8024;48.708;9.394;2022-10-31T11:43:35;8.10;;;4.17;;
15848;SDS011;8024;48.708;9.394;2022-10-31T11:46:08;6.00;;;3.80;;
15848;SDS011;8024;48.708;9.394;2022-10-31T11:48:36;8.93;;;4.10;;
15848;SDS011;8024;48.708;9.394;2022-10-31T11:51:05;7.97;;;3.90;;
15848;SDS011;8024;48.708;9.394;2022-10-31T11:53:33;5.70;;;3.67;;
15848;SDS011;8024;48.708;9.394;2022-10-31T11:56:05;5.90;;;3.33;;
15848;SDS011;8024;48.708;9.394;2022-10-31T11:58:38;5.90;;;3.67;;
15848;SDS011;8024;48.708;9.394;2022-10-31T12:01:05;6.83;;;3.60;;
15848;SDS011;8024;48.708;9.394;2022-10-31T12:03:48;9.13;;;3.67;;
15848;SDS011;8024;48.708;9.394;2022-10-31T12:06:24;7.07;;;3.77;;
15848;SDS011;8024;48.708;9.394;2022-10-31T12:08:56;6.17;;;3.63;;
15848;SDS011;8024;48.708;9.394;2022-10-31T12:11:30;5.17;;;3.43;;
15848;SDS011;8024;48.708;9.394;2022-10-31T12:14:14;4.97;;;3.67;;
15848;SDS011;8024;48.708;9.394;2022-10-31T12:16:50;4.20;;;3.37;;
15848;SDS011;8024;48.708;9.394;2022-10-31T12:19:24;5.77;;;3.63;;
15848;SDS011;8024;48.708;9.394;2022-10-31T12:22:04;6.23;;;4.10;;
15848;SDS011;8024;48.708;9.394;2022-10-31T12:25:02;6.53;;;3.70;;
15848;SDS011;8024;48.708;9.394;2022-10-31T12:27:57;6.60;;;3.70;;
15848;SDS011;8024;48.708;9.394;2022-10-31T12:30:30;6.43;;;3.87;;
15848;SDS011;8024;48.708;9.394;2022-10-31T12:33:14;7.07;;;3.50;;
15848;SDS011;8024;48.708;9.394;2022-10-31T12:35:51;4.93;;;3.40;;
15848;SDS011;8024;48.708;9.394;2022-10-31T12:38:37;4.87;;;3.27;;
15848;SDS011;8024;48.708;9.394;2022-10-31T12:41:15;6.73;;;3.93;;
15848;SDS011;8024;48.708;9.394;2022-10-31T12:43:56;6.00;;;3.93;;
15848;SDS011;8024;48.708;9.394;2022-10-31T12:46:38;5.83;;;4.30;;
15848;SDS011;8024;48.708;9.394;2022-10-31T12:49:27;7.77;;;4.30;;
15848;SDS011;8024;48.708;9.394;2022-10-31T12:52:10;6.27;;;3.73;;
15848;SDS011;8024;48.708;9.394;2022-10-31T12:54:50;7.13;;;4.17;;
15848;SDS011;8024;48.708;9.394;2022-10-31T12:57:29;5.37;;;3.70;;
15848;SDS011;8024;48.708;9.394;2022-10-31T13:00:01;7.10;;;4.13;;
15848;SDS011;8024;48.708;9.394;2022-10-31T13:02:31;5.47;;;3.43;;
15848;SDS011;8024;48.708;9.394;2022-10-31T13:05:02;5.27;;;3.33;;
15848;SDS011;8024;48.708;9.394;2022-10-31T13:07:34;7.20;;;3.20;;
15848;SDS011;8024;48.708;9.394;2022-10-31T13:10:07;5.23;;;3.40;;
15848;SDS011;8024;48.708;9.394;2022-10-31T13:12:42;6.30;;;3.67;;
15848;SDS011;8024;48.708;9.394;2022-10-31T13:15:15;6.67;;;4.17;;
15848;SDS011;8024;48.708;9.394;2022-10-31T13:17:45;9.17;;;4.63;;
15848;SDS011;8024;48.708;9.394;2022-10-31T13:20:20;6.10;;;4.20;;
15848;SDS011;8024;48.708;9.394;2022-10-31T13:22:51;6.40;;;4.37;;
15848;SDS011;8024;48.708;9.394;2022-10-31T13:25:24;6.20;;;4.10;;
15848;SDS011;8024;48.708;9.394;2022-10-31T13:27:55;11.00;;;5.20;;
15848;SDS011;8024;48.708;9.394;2022-10-31T13:30:25;10.40;;;5.47;;
15848;SDS011;8024;48.708;9.394;2022-10-31T13:32:55;10.70;;;5.33;;
15848;SDS011;8024;48.708;9.394;2022-10-31T13:35:28;7.23;;;5.23;;
15848;SDS011;8024;48.708;9.394;2022-10-31T13:38:03;11.13;;;5.93;;
15848;SDS011;8024;48.708;9.394;2022-10-31T13:40:40;9.70;;;5.17;;
15848;SDS011;8024;48.708;9.394;2022-10-31T13:43:27;9.03;;;5.37;;
15848;SDS011;8024;48.708;9.394;2022-10-31T13:46:00;6.90;;;5.50;;
15848;SDS011;8024;48.708;9.394;2022-10-31T13:48:38;8.50;;;5.47;;
15848;SDS011;8024;48.708;9.394;2022-10-31T13:51:08;12.07;;;5.53;;
15848;SDS011;8024;48.708;9.394;2022-10-31T13:53:43;8.67;;;5.30;;
15848;SDS011;8024;48.708;9.394;2022-10-31T13:56:24;11.37;;;5.30;;
15848;SDS011;8024;48.708;9.394;2022-10-31T13:59:01;7.37;;;5.60;;
15848;SDS011;8024;48.708;9.394;2022-10-31T14:01:48;8.10;;;4.90;;
15848;SDS011;8024;48.708;9.394;2022-10-31T14:04:20;7.40;;;5.43;;
15848;SDS011;8024;48.708;9.394;2022-10-31T14:06:54;8.87;;;5.27;;
15848;SDS011;8024;48.708;9.394;2022-10-31T14:09:28;8.30;;;4.63;;
15848;SDS011;8024;48.708;9.394;2022-10-31T14:12:00;7.77;;;4.30;;
15848;SDS011;8024;48.708;9.394;2022-10-31T14:14:32;6.77;;;4.53;;
15848;SDS011;8024;48.708;9.394;2022-10-31T14:17:05;7.47;;;5.50;;
15848;SDS011;8024;48.708;9.394;2022-10-31T14:19:39;11.63;;;5.23;;
15848;SDS011;8024;48.708;9.394;2022-10-31T14:22:18;8.30;;;5.77;;
15848;SDS011;8024;48.708;9.394;2022-10-31T14:24:46;10.97;;;5.37;;
15848;SDS011;8024;48.708;9.394;2022-10-31T14:27:34;8.63;;;5.27;;
15848;SDS011;8024;48.708;9.394;2022-10-31T14:30:14;9.53;;;6.00;;
15848;SDS011;8024;48.708;9.394;2022-10-31T14:32:43;15.10;;;6.37;;
15848;SDS011;8024;48.708;9.394;2022-10-31T14:35:19;12.57;;;6.93;;
15848;SDS011;8024;48.708;9.394;2022-10-31T14:37:56;10.20;;;5.83;;
15848;SDS011;8024;48.708;9.394;2022-10-31T14:40:40;9.57;;;5.73;;
15848;SDS011;8024;48.708;9.394;2022-10-31T14:46:17;11.83;;;5.70;;
15848;SDS011;8024;48.708;9.394;2022-10-31T14:51:46;10.97;;;6.43;;
15848;SDS011;8024;48.708;9.394;2022-10-31T14:54:17;12.80;;;6.43;;
15848;SDS011;8024;48.708;9.394;2022-10-31T14:56:49;8.20;;;5.63;;
15848;SDS011;8024;48.708;9.394;2022-10-31T14:59:20;7.57;;;5.10;;
15848;SDS011;8024;48.708;9.394;2022-10-31T15:01:53;5.87;;;5.33;;
15848;SDS011;8024;48.708;9.394;2022-10-31T15:04:24;9.13;;;5.63;;
15848;SDS011;8024;48.708;9.394;2022-10-31T15:06:53;6.57;;;5.27;;
15848;SDS011;8024;48.708;9.394;2022-10-31T15:09:25;11.63;;;6.47;;
15848;SDS011;8024;48.708;9.394;2022-10-31T15:11:54;9.53;;;5.77;;
15848;SDS011;8024;48.708;9.394;2022-10-31T15:14:24;9.13;;;5.70;;
15848;SDS011;8024;48.708;9.394;2022-10-31T15:16:52;8.97;;;4.87;;
15848;SDS011;8024;48.708;9.394;2022-10-31T15:19:22;7.10;;;4.53;;
15848;SDS011;8024;48.708;9.394;2022-10-31T15:21:51;12.90;;;4.13;;
15848;SDS011;8024;48.708;9.394;2022-10-31T15:24:20;8.23;;;4.30;;
15848;SDS011;8024;48.708;9.394;2022-10-31T15:26:50;5.90;;;4.17;;
15848;SDS011;8024;48.708;9.394;2022-10-31T15:29:19;7.00;;;4.13;;
15848;SDS011;8024;48.708;9.394;2022-10-31T15:31:52;5.97;;;3.93;;
15848;SDS011;8024;48.708;9.394;2022-10-31T15:34:21;6.93;;;4.00;;
15848;SDS011;8024;48.708;9.394;2022-10-31T15:36:52;6.33;;;4.77;;